sensor_id;sensor_type;location;lat;lon;timestamp;pressure;altitude;pressure_sealevel;temperature;humidity
72438;BME280;60444;43.534;-5.674;2023-02-10T00:01:18;103691.16;;;7.45;100.00
72438;BME280;60444;43.534;-5.674;2023-02-10T00:03:44;103686.63;;;7.40;100.00
72438;BME280;60444;43.534;-5.674;2023-02-10T00:06:11;103710.03;;;7.48;100.00
72438;BME280;60444;43.534;-5.674;2023-02-10T00:08:36;103699.16;;;7.39;100.00
72438;BME280;60444;43.534;-5.674;2023-02-10T00:11:04;103709.94;;;7.42;100.00
72438;BME280;60444;43.534;-5.674;2023-02-10T00:13:30;103698.25;;;7.38;100.00
72438;BME280;60444;43.534;-5.674;2023-02-10T00:16:01;103702.75;;;7.40;100.00
72438;BME280;60444;43.534;-5.674;2023-02-10T00:18:27;103684.63;;;7.22;100.00
72438;BME280;60444;43.534;-5.674;2023-02-10T00:20:53;103709.84;;;7.33;100.00
72438;BME280;60444;43.534;-5.674;2023-02-10T00:23:19;103706.22;;;7.28;100.00
72438;BME280;60444;43.534;-5.674;2023-02-10T00:25:46;103705.28;;;7.23;100.00
72438;BME280;60444;43.534;-5.674;2023-02-10T00:28:11;103716.06;;;7.24;100.00
72438;BME280;60444;43.534;-5.674;2023-02-10T00:30:37;103694.28;;;7.03;100.00
72438;BME280;60444;43.534;-5.674;2023-02-10T00:33:03;103707.84;;;7.11;100.00
72438;BME280;60444;43.534;-5.674;2023-02-10T00:35:29;103704.22;;;7.09;100.00
72438;BME280;60444;43.534;-5.674;2023-02-10T00:37:56;103696.03;;;6.98;100.00
72438;BME280;60444;43.534;-5.674;2023-02-10T00:40:21;103709.53;;;7.03;100.00
72438;BME280;60444;43.534;-5.674;2023-02-10T00:42:47;103705.97;;;7.04;100.00
72438;BME280;60444;43.534;-5.674;2023-02-10T00:45:12;103707.72;;;7.00;100.00
72438;BME280;60444;43.534;-5.674;2023-02-10T00:47:38;103707.66;;;6.99;100.00
72438;BME280;60444;43.534;-5.674;2023-02-10T00:50:04;103704.06;;;6.97;100.00
72438;BME280;60444;43.534;-5.674;2023-02-10T00:52:29;103674.28;;;6.80;100.00
72438;BME280;60444;43.534;-5.674;2023-02-10T00:54:55;103696.84;;;6.91;100.00
72438;BME280;60444;43.534;-5.674;2023-02-10T00:57:20;103691.38;;;6.87;100.00
72438;BME280;60444;43.534;-5.674;2023-02-10T00:59:46;103696.88;;;6.96;100.00
72438;BME280;60444;43.534;-5.674;2023-02-10T01:02:11;103703.16;;;6.95;100.00
72438;BME280;60444;43.534;-5.674;2023-02-10T01:04:37;103694.16;;;6.93;100.00
72438;BME280;60444;43.534;-5.674;2023-02-10T01:07:02;103690.72;;;7.06;100.00
72438;BME280;60444;43.534;-5.674;2023-02-10T01:09:28;103696.97;;;7.02;100.00
72438;BME280;60444;43.534;-5.674;2023-02-10T01:11:53;103693.34;;;7.00;100.00
72438;BME280;60444;43.534;-5.674;2023-02-10T01:14:19;103682.47;;;6.91;100.00
72438;BME280;60444;43.534;-5.674;2023-02-10T01:16:45;103690.56;;;6.92;100.00
72438;BME280;60444;43.534;-5.674;2023-02-10T01:19:11;103661.66;;;6.75;100.00
72438;BME280;60444;43.534;-5.674;2023-02-10T01:21:36;103693.16;;;6.85;100.00
72438;BME280;60444;43.534;-5.674;2023-02-10T01:24:04;103693.16;;;6.86;100.00
72438;BME280;60444;43.534;-5.674;2023-02-10T01:26:30;103699.56;;;6.94;100.00
72438;BME280;60444;43.534;-5.674;2023-02-10T01:28:56;103693.28;;;6.97;100.00
72438;BME280;60444;43.534;-5.674;2023-02-10T01:31:21;103675.38;;;6.99;100.00
72438;BME280;60444;43.534;-5.674;2023-02-10T01:33:50;103663.75;;;7.00;100.00
72438;BME280;60444;43.534;-5.674;2023-02-10T01:36:18;103677.41;;;7.16;100.00
72438;BME280;60444;43.534;-5.674;2023-02-10T01:38:44;103670.16;;;7.11;100.00
72438;BME280;60444;43.534;-5.674;2023-02-10T01:41:11;103669.25;;;7.10;100.00
72438;BME280;60444;43.534;-5.674;2023-02-10T01:44:06;103668.38;;;7.13;100.00
72438;BME280;60444;43.534;-5.674;2023-02-10T01:46:35;103671.09;;;7.13;100.00
72438;BME280;60444;43.534;-5.674;2023-02-10T01:49:04;103660.22;;;7.04;100.00
72438;BME280;60444;43.534;-5.674;2023-02-10T01:51:37;103672.75;;;7.02;100.00
72438;BME280;60444;43.534;-5.674;2023-02-10T01:54:04;103678.13;;;7.03;100.00
72438;BME280;60444;43.534;-5.674;2023-02-10T01:56:31;103675.44;;;7.00;100.00
72438;BME280;60444;43.534;-5.674;2023-02-10T01:58:57;103684.34;;;6.98;100.00
72438;BME280;60444;43.534;-5.674;2023-02-10T02:01:23;103679.81;;;6.94;100.00
72438;BME280;60444;43.534;-5.674;2023-02-10T02:03:48;103682.41;;;6.88;100.00
72438;BME280;60444;43.534;-5.674;2023-02-10T02:06:14;103695.00;;;6.89;100.00
72438;BME280;60444;43.534;-5.674;2023-02-10T02:08:40;103699.59;;;6.99;100.00
72438;BME280;60444;43.534;-5.674;2023-02-10T02:11:18;103699.59;;;6.97;100.00
72438;BME280;60444;43.534;-5.674;2023-02-10T02:13:47;103688.84;;;6.99;100.00
72438;BME280;60444;43.534;-5.674;2023-02-10T02:17:14;103688.00;;;7.04;100.00
72438;BME280;60444;43.534;-5.674;2023-02-10T02:33:33;103688.81;;;6.97;100.00
72438;BME280;60444;43.534;-5.674;2023-02-10T02:36:10;103693.25;;;6.91;100.00
72438;BME280;60444;43.534;-5.674;2023-02-10T02:38:39;103686.94;;;6.90;100.00
72438;BME280;60444;43.534;-5.674;2023-02-10T02:41:05;103697.72;;;6.90;100.00
72438;BME280;60444;43.534;-5.674;2023-02-10T02:43:31;103684.13;;;6.80;100.00
72438;BME280;60444;43.534;-5.674;2023-02-10T02:46:27;103676.91;;;6.76;100.00
72438;BME280;60444;43.534;-5.674;2023-02-10T02:49:26;103689.56;;;6.84;100.00
72438;BME280;60444;43.534;-5.674;2023-02-10T02:52:03;103695.81;;;6.83;100.00
72438;BME280;60444;43.534;-5.674;2023-02-10T02:59:56;103682.47;;;6.91;100.00
72438;BME280;60444;43.534;-5.674;2023-02-10T03:02:25;103675.13;;;6.78;100.00
72438;BME280;60444;43.534;-5.674;2023-02-10T03:04:54;103679.69;;;6.83;100.00
72438;BME280;60444;43.534;-5.674;2023-02-10T03:07:19;103679.72;;;6.88;100.00
72438;BME280;60444;43.534;-5.674;2023-02-10T03:09:45;103684.16;;;6.81;100.00
72438;BME280;60444;43.534;-5.674;2023-02-10T03:12:10;103663.41;;;6.73;100.00
72438;BME280;60444;43.534;-5.674;2023-02-10T03:14:38;103674.28;;;6.80;100.00
72438;BME280;60444;43.534;-5.674;2023-02-10T03:17:03;103660.84;;;6.83;100.00
72438;BME280;60444;43.534;-5.674;2023-02-10T03:19:29;103667.03;;;6.75;100.00
72438;BME280;60444;43.534;-5.674;2023-02-10T03:21:54;103647.28;;;6.73;100.00
72438;BME280;60444;43.534;-5.674;2023-02-10T03:24:20;103661.56;;;6.69;100.00
72438;BME280;60444;43.534;-5.674;2023-02-10T03:26:45;103662.47;;;6.68;100.00
72438;BME280;60444;43.534;-5.674;2023-02-10T03:29:13;103631.75;;;6.49;100.00
72438;BME280;60444;43.534;-5.674;2023-02-10T03:31:39;103656.91;;;6.56;100.00
72438;BME280;60444;43.534;-5.674;2023-02-10T03:34:04;103652.47;;;6.59;100.00
72438;BME280;60444;43.534;-5.674;2023-02-10T03:36:30;103663.19;;;6.56;100.00
72438;BME280;60444;43.534;-5.674;2023-02-10T03:38:55;103641.72;;;6.58;100.00
72438;BME280;60444;43.534;-5.674;2023-02-10T03:41:21;103668.75;;;6.70;100.00
72438;BME280;60444;43.534;-5.674;2023-02-10T03:43:46;103675.84;;;6.65;100.00
72438;BME280;60444;43.534;-5.674;2023-02-10T03:46:12;103670.22;;;6.45;100.00
72438;BME280;60444;43.534;-5.674;2023-02-10T03:48:37;103663.81;;;6.36;100.00
72438;BME280;60444;43.534;-5.674;2023-02-10T03:51:05;103671.06;;;6.41;100.00
72438;BME280;60444;43.534;-5.674;2023-02-10T03:53:31;103666.56;;;6.39;100.00
72438;BME280;60444;43.534;-5.674;2023-02-10T03:55:57;103650.19;;;6.22;100.00
72438;BME280;60444;43.534;-5.674;2023-02-10T03:58:23;103663.63;;;6.22;100.00
72438;BME280;60444;43.534;-5.674;2023-02-10T04:00:49;103647.28;;;6.08;100.00
72438;BME280;60444;43.534;-5.674;2023-02-10T04:03:15;103685.00;;;6.16;100.00
72438;BME280;60444;43.534;-5.674;2023-02-10T04:05:40;103689.41;;;6.09;100.00
72438;BME280;60444;43.534;-5.674;2023-02-10T04:08:06;103685.69;;;6.01;100.00
72438;BME280;60444;43.534;-5.674;2023-02-10T04:10:32;103678.34;;;5.88;100.00
72438;BME280;60444;43.534;-5.674;2023-02-10T04:13:00;103671.00;;;5.81;100.00
72438;BME280;60444;43.534;-5.674;2023-02-10T04:15:26;103679.97;;;5.82;100.00
72438;BME280;60444;43.534;-5.674;2023-02-10T04:17:51;103680.94;;;5.84;100.00
72438;BME280;60444;43.534;-5.674;2023-02-10T04:20:17;103683.53;;;5.81;100.00
72438;BME280;60444;43.534;-5.674;2023-02-10T04:22:43;103674.69;;;5.85;100.00
72438;BME280;60444;43.534;-5.674;2023-02-10T04:25:10;103691.78;;;5.90;100.00
72438;BME280;60444;43.534;-5.674;2023-02-10T04:27:35;103686.13;;;5.75;100.00
72438;BME280;60444;43.534;-5.674;2023-02-10T04:30:01;103696.88;;;5.76;100.00
72438;BME280;60444;43.534;-5.674;2023-02-10T04:32:26;103687.09;;;5.81;100.00
72438;BME280;60444;43.534;-5.674;2023-02-10T04:34:52;103697.75;;;5.75;100.00
72438;BME280;60444;43.534;-5.674;2023-02-10T04:37:17;103664.41;;;5.61;100.00
72438;BME280;60444;43.534;-5.674;2023-02-10T04:39:43;103691.47;;;5.75;100.00
72438;BME280;60444;43.534;-5.674;2023-02-10T04:42:09;103672.78;;;5.81;100.00
72438;BME280;60444;43.534;-5.674;2023-02-10T04:44:34;103676.16;;;5.69;100.00
72438;BME280;60444;43.534;-5.674;2023-02-10T04:47:00;103686.91;;;5.69;100.00
72438;BME280;60444;43.534;-5.674;2023-02-10T04:49:26;103697.19;;;5.91;100.00
72438;BME280;60444;43.534;-5.674;2023-02-10T04:51:52;103685.28;;;5.79;100.00
72438;BME280;60444;43.534;-5.674;2023-02-10T04:54:17;103688.69;;;5.69;100.00
72438;BME280;60444;43.534;-5.674;2023-02-10T04:56:43;103686.88;;;5.66;100.00
72438;BME280;60444;43.534;-5.674;2023-02-10T04:59:08;103678.69;;;5.60;100.00
72438;BME280;60444;43.534;-5.674;2023-02-10T05:01:34;103689.53;;;5.65;100.00
72438;BME280;60444;43.534;-5.674;2023-02-10T05:04:00;103711.06;;;5.69;100.00
72438;BME280;60444;43.534;-5.674;2023-02-10T05:06:26;103691.16;;;5.57;100.00
72438;BME280;60444;43.534;-5.674;2023-02-10T05:08:51;103695.75;;;5.62;100.00
72438;BME280;60444;43.534;-5.674;2023-02-10T05:11:18;103695.91;;;5.73;100.00
72438;BME280;60444;43.534;-5.674;2023-02-10T05:13:44;103704.88;;;5.72;100.00
72438;BME280;60444;43.534;-5.674;2023-02-10T05:16:11;103707.38;;;5.61;100.00
72438;BME280;60444;43.534;-5.674;2023-02-10T05:18:37;103672.22;;;5.48;100.00
72438;BME280;60444;43.534;-5.674;2023-02-10T05:21:05;103706.50;;;5.64;100.00
72438;BME280;60444;43.534;-5.674;2023-02-10T05:23:32;103691.50;;;5.76;100.00
72438;BME280;60444;43.534;-5.674;2023-02-10T05:25:58;103696.69;;;5.64;100.00
72438;BME280;60444;43.534;-5.674;2023-02-10T05:28:23;103691.44;;;5.72;100.00
72438;BME280;60444;43.534;-5.674;2023-02-10T05:30:48;103703.00;;;5.68;100.00
72438;BME280;60444;43.534;-5.674;2023-02-10T05:33:14;103675.88;;;5.53;100.00
72438;BME280;60444;43.534;-5.674;2023-02-10T05:35:40;103697.81;;;5.78;100.00
72438;BME280;60444;43.534;-5.674;2023-02-10T05:38:05;103685.78;;;5.55;100.00
72438;BME280;60444;43.534;-5.674;2023-02-10T05:40:31;103695.91;;;5.71;100.00
72438;BME280;60444;43.534;-5.674;2023-02-10T05:42:57;103710.94;;;5.62;100.00
72438;BME280;60444;43.534;-5.674;2023-02-10T05:45:22;103711.72;;;5.56;100.00
72438;BME280;60444;43.534;-5.674;2023-02-10T05:47:48;103702.78;;;5.56;100.00
72438;BME280;60444;43.534;-5.674;2023-02-10T05:50:14;103708.16;;;5.56;100.00
72438;BME280;60444;43.534;-5.674;2023-02-10T05:52:40;103701.84;;;5.54;100.00
72438;BME280;60444;43.534;-5.674;2023-02-10T05:55:06;103702.88;;;5.62;100.00
72438;BME280;60444;43.534;-5.674;2023-02-10T05:57:32;103700.00;;;5.51;100.00
72438;BME280;60444;43.534;-5.674;2023-02-10T05:59:58;103698.38;;;5.59;100.00
72438;BME280;60444;43.534;-5.674;2023-02-10T06:02:23;103683.69;;;5.39;100.00
72438;BME280;60444;43.534;-5.674;2023-02-10T06:04:49;103700.91;;;5.52;100.00
72438;BME280;60444;43.534;-5.674;2023-02-10T06:07:15;103680.25;;;5.46;100.00
72438;BME280;60444;43.534;-5.674;2023-02-10T06:09:41;103672.75;;;5.27;100.00
72438;BME280;60444;43.534;-5.674;2023-02-10T06:12:07;103690.78;;;5.34;100.00
72438;BME280;60444;43.534;-5.674;2023-02-10T06:14:33;103660.81;;;5.13;100.00
72438;BME280;60444;43.534;-5.674;2023-02-10T06:16:58;103697.72;;;5.23;100.00
72438;BME280;60444;43.534;-5.674;2023-02-10T06:19:24;103661.59;;;5.06;100.00
72438;BME280;60444;43.534;-5.674;2023-02-10T06:21:49;103664.19;;;5.00;100.00
72438;BME280;60444;43.534;-5.674;2023-02-10T06:24:15;103672.25;;;5.01;100.00
72438;BME280;60444;43.534;-5.674;2023-02-10T06:26:40;103684.88;;;5.07;100.00
72438;BME280;60444;43.534;-5.674;2023-02-10T06:29:06;103690.44;;;5.17;100.00
72438;BME280;60444;43.534;-5.674;2023-02-10T06:31:32;103690.59;;;5.25;100.00
72438;BME280;60444;43.534;-5.674;2023-02-10T06:33:57;103682.28;;;5.13;100.00
72438;BME280;60444;43.534;-5.674;2023-02-10T06:36:23;103675.94;;;5.08;100.00
72438;BME280;60444;43.534;-5.674;2023-02-10T06:38:49;103684.16;;;5.17;100.00
72438;BME280;60444;43.534;-5.674;2023-02-10T06:41:14;103684.47;;;5.32;100.00
72438;BME280;60444;43.534;-5.674;2023-02-10T06:43:40;103686.41;;;5.41;100.00
72438;BME280;60444;43.534;-5.674;2023-02-10T06:46:06;103679.94;;;5.31;100.00
72438;BME280;60444;43.534;-5.674;2023-02-10T06:48:32;103685.50;;;5.40;100.00
72438;BME280;60444;43.534;-5.674;2023-02-10T06:50:58;103700.59;;;5.35;100.00
72438;BME280;60444;43.534;-5.674;2023-02-10T06:53:24;103703.41;;;5.40;100.00
72438;BME280;60444;43.534;-5.674;2023-02-10T06:55:49;103696.16;;;5.36;100.00
72438;BME280;60444;43.534;-5.674;2023-02-10T06:58:15;103692.81;;;5.49;100.00
72438;BME280;60444;43.534;-5.674;2023-02-10T07:00:41;103698.09;;;5.44;100.00
72438;BME280;60444;43.534;-5.674;2023-02-10T07:03:07;103695.97;;;5.26;100.00
72438;BME280;60444;43.534;-5.674;2023-02-10T07:05:32;103709.72;;;5.43;100.00
72438;BME280;60444;43.534;-5.674;2023-02-10T07:08:01;103682.34;;;5.14;100.00
72438;BME280;60444;43.534;-5.674;2023-02-10T07:10:29;103693.16;;;5.20;100.00
72438;BME280;60444;43.534;-5.674;2023-02-10T07:12:55;103710.34;;;5.28;100.00
72438;BME280;60444;43.534;-5.674;2023-02-10T07:15:21;103709.38;;;5.25;100.00
72438;BME280;60444;43.534;-5.674;2023-02-10T07:17:49;103703.81;;;5.14;100.00
72438;BME280;60444;43.534;-5.674;2023-02-10T07:20:17;103711.31;;;5.34;100.00
72438;BME280;60444;43.534;-5.674;2023-02-10T07:22:42;103704.88;;;5.24;100.00
72438;BME280;60444;43.534;-5.674;2023-02-10T07:25:08;103696.72;;;5.18;100.00
72438;BME280;60444;43.534;-5.674;2023-02-10T07:27:33;103696.06;;;5.31;100.00
72438;BME280;60444;43.534;-5.674;2023-02-10T07:29:59;103686.16;;;5.27;100.00
72438;BME280;60444;43.534;-5.674;2023-02-10T07:32:25;103685.28;;;5.28;100.00
72438;BME280;60444;43.534;-5.674;2023-02-10T07:34:50;103719.72;;;5.52;100.00
72438;BME280;60444;43.534;-5.674;2023-02-10T07:37:16;103720.72;;;5.58;100.00
72438;BME280;60444;43.534;-5.674;2023-02-10T07:39:42;103695.91;;;5.23;100.00
72438;BME280;60444;43.534;-5.674;2023-02-10T07:42:07;103720.28;;;5.34;100.00
72438;BME280;60444;43.534;-5.674;2023-02-10T07:44:33;103714.75;;;5.26;100.00
72438;BME280;60444;43.534;-5.674;2023-02-10T07:46:59;103712.09;;;5.26;100.00
72438;BME280;60444;43.534;-5.674;2023-02-10T07:49:24;103703.34;;;5.38;100.00
72438;BME280;60444;43.534;-5.674;2023-02-10T07:51:55;103719.41;;;5.35;100.00
72438;BME280;60444;43.534;-5.674;2023-02-10T07:54:20;103733.72;;;5.36;100.00
72438;BME280;60444;43.534;-5.674;2023-02-10T07:56:46;103737.31;;;5.36;100.00
72438;BME280;60444;43.534;-5.674;2023-02-10T07:59:12;103721.13;;;5.32;100.00
72438;BME280;60444;43.534;-5.674;2023-02-10T08:01:37;103724.81;;;5.38;100.00
72438;BME280;60444;43.534;-5.674;2023-02-10T08:04:08;103724.16;;;5.50;100.00
72438;BME280;60444;43.534;-5.674;2023-02-10T08:06:33;103717.50;;;5.29;100.00
72438;BME280;60444;43.534;-5.674;2023-02-10T08:08:59;103730.25;;;5.41;100.00
72438;BME280;60444;43.534;-5.674;2023-02-10T08:11:24;103727.91;;;5.59;100.00
72438;BME280;60444;43.534;-5.674;2023-02-10T08:13:50;103726.78;;;5.47;100.00
72438;BME280;60444;43.534;-5.674;2023-02-10T08:16:15;103723.91;;;5.36;100.00
72438;BME280;60444;43.534;-5.674;2023-02-10T08:18:41;103719.59;;;5.46;100.00
72438;BME280;60444;43.534;-5.674;2023-02-10T08:21:07;103723.06;;;5.40;100.00
72438;BME280;60444;43.534;-5.674;2023-02-10T08:23:33;103729.69;;;5.59;100.00
72438;BME280;60444;43.534;-5.674;2023-02-10T08:26:06;103706.03;;;5.38;100.00
72438;BME280;60444;43.534;-5.674;2023-02-10T08:28:33;103727.16;;;5.66;100.00
72438;BME280;60444;43.534;-5.674;2023-02-10T08:31:00;103733.97;;;5.49;100.00
72438;BME280;60444;43.534;-5.674;2023-02-10T08:33:26;103726.22;;;5.66;100.00
72438;BME280;60444;43.534;-5.674;2023-02-10T08:35:52;103730.84;;;5.74;100.00
72438;BME280;60444;43.534;-5.674;2023-02-10T08:38:18;103729.09;;;5.76;100.00
72438;BME280;60444;43.534;-5.674;2023-02-10T08:40:43;103733.78;;;5.85;100.00
72438;BME280;60444;43.534;-5.674;2023-02-10T08:43:09;103731.97;;;5.85;100.00
72438;BME280;60444;43.534;-5.674;2023-02-10T08:45:34;103730.25;;;5.90;100.00
72438;BME280;60444;43.534;-5.674;2023-02-10T08:48:00;103724.06;;;5.94;100.00
72438;BME280;60444;43.534;-5.674;2023-02-10T08:50:27;103714.06;;;5.83;100.00
72438;BME280;60444;43.534;-5.674;2023-02-10T08:52:52;103722.31;;;5.96;100.00
72438;BME280;60444;43.534;-5.674;2023-02-10T08:55:18;103719.47;;;5.87;100.00
72438;BME280;60444;43.534;-5.674;2023-02-10T08:57:44;103725.09;;;6.01;100.00
72438;BME280;60444;43.534;-5.674;2023-02-10T09:00:10;103733.25;;;6.08;100.00
72438;BME280;60444;43.534;-5.674;2023-02-10T09:02:36;103700.13;;;6.06;100.00
72438;BME280;60444;43.534;-5.674;2023-02-10T09:05:02;103724.53;;;6.21;100.00
72438;BME280;60444;43.534;-5.674;2023-02-10T09:07:27;103729.84;;;6.17;100.00
72438;BME280;60444;43.534;-5.674;2023-02-10T09:09:53;103726.50;;;6.32;100.00
72438;BME280;60444;43.534;-5.674;2023-02-10T09:12:19;103717.41;;;6.26;100.00
72438;BME280;60444;43.534;-5.674;2023-02-10T09:14:44;103711.31;;;6.37;100.00
72438;BME280;60444;43.534;-5.674;2023-02-10T09:17:10;103720.38;;;6.45;100.00
72438;BME280;60444;43.534;-5.674;2023-02-10T09:19:36;103714.19;;;6.49;100.00
72438;BME280;60444;43.534;-5.674;2023-02-10T09:22:05;103717.81;;;6.52;100.00
72438;BME280;60444;43.534;-5.674;2023-02-10T09:24:33;103696.25;;;6.48;100.00
72438;BME280;60444;43.534;-5.674;2023-02-10T09:26:59;103709.03;;;6.65;100.00
72438;BME280;60444;43.534;-5.674;2023-02-10T09:29:25;103694.63;;;6.59;100.00
72438;BME280;60444;43.534;-5.674;2023-02-10T09:31:51;103720.88;;;6.79;100.00
72438;BME280;60444;43.534;-5.674;2023-02-10T09:34:16;103702.00;;;6.75;100.00
72438;BME280;60444;43.534;-5.674;2023-02-10T09:36:42;103715.69;;;6.93;100.00
72438;BME280;60444;43.534;-5.674;2023-02-10T09:39:07;103717.50;;;6.95;100.00
72438;BME280;60444;43.534;-5.674;2023-02-10T09:55:22;103702.47;;;7.14;100.00
72438;BME280;60444;43.534;-5.674;2023-02-10T10:00:40;103709.84;;;7.33;100.00
72438;BME280;60444;43.534;-5.674;2023-02-10T10:03:13;103699.97;;;7.29;100.00
72438;BME280;60444;43.534;-5.674;2023-02-10T10:05:55;103700.09;;;7.43;100.00
72438;BME280;60444;43.534;-5.674;2023-02-10T10:08:29;103708.31;;;7.56;100.00
72438;BME280;60444;43.534;-5.674;2023-02-10T10:11:09;103677.78;;;7.53;100.00
72438;BME280;60444;43.534;-5.674;2023-02-10T10:13:42;103698.56;;;7.69;100.00
72438;BME280;60444;43.534;-5.674;2023-02-10T10:16:33;103688.66;;;7.66;100.00
72438;BME280;60444;43.534;-5.674;2023-02-10T10:30:19;103691.03;;;8.33;100.00
72438;BME280;60444;43.534;-5.674;2023-02-10T10:32:49;103686.56;;;8.42;100.00
72438;BME280;60444;43.534;-5.674;2023-02-10T10:35:22;103693.81;;;8.52;100.00
72438;BME280;60444;43.534;-5.674;2023-02-10T10:37:50;103680.34;;;8.52;100.00
72438;BME280;60444;43.534;-5.674;2023-02-10T10:40:19;103690.34;;;8.74;100.00
72438;BME280;60444;43.534;-5.674;2023-02-10T10:42:52;103677.78;;;8.80;100.00
72438;BME280;60444;43.534;-5.674;2023-02-10T10:45:39;103681.41;;;8.91;100.00
72438;BME280;60444;43.534;-5.674;2023-02-10T10:48:21;103673.31;;;8.90;100.00
72438;BME280;60444;43.534;-5.674;2023-02-10T10:50:52;103654.38;;;8.76;100.00
72438;BME280;60444;43.534;-5.674;2023-02-10T10:55:58;103663.44;;;8.95;100.00
72438;BME280;60444;43.534;-5.674;2023-02-10T10:58:30;103673.41;;;9.17;100.00
72438;BME280;60444;43.534;-5.674;2023-02-10T11:00:59;103673.41;;;9.23;100.00
72438;BME280;60444;43.534;-5.674;2023-02-10T11:03:26;103671.59;;;9.26;100.00
72438;BME280;60444;43.534;-5.674;2023-02-10T11:06:03;103660.84;;;9.29;100.00
72438;BME280;60444;43.534;-5.674;2023-02-10T11:08:35;103672.53;;;9.50;100.00
72438;BME280;60444;43.534;-5.674;2023-02-10T11:11:05;103650.03;;;9.43;100.00
72438;BME280;60444;43.534;-5.674;2023-02-10T11:13:37;103670.78;;;9.68;98.21
72438;BME280;60444;43.534;-5.674;2023-02-10T11:16:10;103662.66;;;9.74;100.00
72438;BME280;60444;43.534;-5.674;2023-02-10T11:18:38;103651.84;;;9.74;100.00
72438;BME280;60444;43.534;-5.674;2023-02-10T11:21:10;103650.06;;;9.70;100.00
72438;BME280;60444;43.534;-5.674;2023-02-10T11:23:47;103660.84;;;9.82;99.89
72438;BME280;60444;43.534;-5.674;2023-02-10T11:26:24;103656.34;;;9.95;100.00
72438;BME280;60444;43.534;-5.674;2023-02-10T11:28:50;103656.34;;;10.05;100.00
72438;BME280;60444;43.534;-5.674;2023-02-10T11:31:33;103656.31;;;10.04;100.00
72438;BME280;60444;43.534;-5.674;2023-02-10T11:36:41;103653.66;;;10.14;100.00
72438;BME280;60444;43.534;-5.674;2023-02-10T11:39:33;103656.34;;;10.13;100.00
72438;BME280;60444;43.534;-5.674;2023-02-10T11:42:26;103640.13;;;10.10;96.17
72438;BME280;60444;43.534;-5.674;2023-02-10T11:44:57;103639.22;;;10.15;100.00
72438;BME280;60444;43.534;-5.674;2023-02-10T11:47:26;103648.22;;;10.22;99.33
72438;BME280;60444;43.534;-5.674;2023-02-10T11:49:52;103612.16;;;10.23;94.15
72438;BME280;60444;43.534;-5.674;2023-02-10T11:52:20;103635.53;;;10.43;100.00
72438;BME280;60444;43.534;-5.674;2023-02-10T11:54:48;103635.56;;;10.31;93.48
72438;BME280;60444;43.534;-5.674;2023-02-10T11:57:37;103631.94;;;10.44;92.46
72438;BME280;60444;43.534;-5.674;2023-02-10T12:00:30;103626.50;;;10.54;93.74
72438;BME280;60444;43.534;-5.674;2023-02-10T12:03:35;103606.63;;;10.56;91.84
72438;BME280;60444;43.534;-5.674;2023-02-10T12:06:21;103621.06;;;10.55;91.79
72438;BME280;60444;43.534;-5.674;2023-02-10T12:09:21;103621.06;;;10.61;97.69
72438;BME280;60444;43.534;-5.674;2023-02-10T12:12:01;103631.88;;;10.61;89.59
72438;BME280;60444;43.534;-5.674;2023-02-10T12:17:27;103614.69;;;10.70;85.57
72438;BME280;60444;43.534;-5.674;2023-02-10T12:20:16;103611.97;;;10.70;91.25
72438;BME280;60444;43.534;-5.674;2023-02-10T12:25:36;103592.13;;;10.74;90.91
72438;BME280;60444;43.534;-5.674;2023-02-10T12:28:53;103589.41;;;10.71;98.21
72438;BME280;60444;43.534;-5.674;2023-02-10T12:31:35;103612.81;;;10.84;92.81
72438;BME280;60444;43.534;-5.674;2023-02-10T12:48:28;103592.88;;;10.98;93.56
72438;BME280;60444;43.534;-5.674;2023-02-10T12:53:46;103601.91;;;10.99;86.36
72438;BME280;60444;43.534;-5.674;2023-02-10T12:56:43;103582.06;;;10.91;83.42
72438;BME280;60444;43.534;-5.674;2023-02-10T12:59:13;103572.16;;;10.87;83.75
72438;BME280;60444;43.534;-5.674;2023-02-10T13:01:48;103585.66;;;10.94;91.81
72438;BME280;60444;43.534;-5.674;2023-02-10T13:04:51;103584.78;;;10.91;83.17
72438;BME280;60444;43.534;-5.674;2023-02-10T13:09:59;103568.59;;;10.86;81.75
72438;BME280;60444;43.534;-5.674;2023-02-10T13:12:31;103552.34;;;10.82;86.79
72438;BME280;60444;43.534;-5.674;2023-02-10T13:15:25;103550.44;;;10.96;90.97
72438;BME280;60444;43.534;-5.674;2023-02-10T13:17:52;103564.97;;;10.86;90.52
72438;BME280;60444;43.534;-5.674;2023-02-10T13:23:20;103573.06;;;10.90;89.21
72438;BME280;60444;43.534;-5.674;2023-02-10T13:36:39;103553.22;;;10.88;94.31
72438;BME280;60444;43.534;-5.674;2023-02-10T13:39:20;103537.88;;;10.87;94.08
72438;BME280;60444;43.534;-5.674;2023-02-10T13:41:49;103531.59;;;10.81;95.37
72438;BME280;60444;43.534;-5.674;2023-02-10T13:44:24;103534.31;;;10.81;95.81
72438;BME280;60444;43.534;-5.674;2023-02-10T13:47:42;103523.47;;;10.84;99.86
72438;BME280;60444;43.534;-5.674;2023-02-10T13:49:58;103529.75;;;10.86;96.30
72438;BME280;60444;43.534;-5.674;2023-02-10T13:52:30;103523.44;;;10.90;94.85
72438;BME280;60444;43.534;-5.674;2023-02-10T13:57:37;103533.34;;;10.89;92.25
72438;BME280;60444;43.534;-5.674;2023-02-10T14:02:41;103519.84;;;10.85;96.71
72438;BME280;60444;43.534;-5.674;2023-02-10T14:05:35;103522.53;;;10.88;94.22
72438;BME280;60444;43.534;-5.674;2023-02-10T14:08:14;103531.56;;;10.84;90.76
72438;BME280;60444;43.534;-5.674;2023-02-10T14:10:40;103508.13;;;10.84;91.39
72438;BME280;60444;43.534;-5.674;2023-02-10T14:13:24;103499.97;;;10.86;98.27
72438;BME280;60444;43.534;-5.674;2023-02-10T14:16:04;103495.41;;;10.92;93.49
72438;BME280;60444;43.534;-5.674;2023-02-10T14:18:35;103477.34;;;10.94;100.00
72438;BME280;60444;43.534;-5.674;2023-02-10T14:21:09;103466.63;;;10.81;100.00
72438;BME280;60444;43.534;-5.674;2023-02-10T14:23:37;103499.00;;;10.94;94.04
72438;BME280;60444;43.534;-5.674;2023-02-10T14:26:15;103470.16;;;10.92;100.00
72438;BME280;60444;43.534;-5.674;2023-02-10T14:28:47;103484.56;;;10.97;97.44